createdAt,value
2018-11-14T00:02:15.416Z,64.50
2018-11-14T00:04:51.082Z,64.53
2018-11-14T00:07:26.877Z,62.70
2018-11-14T00:10:02.870Z,62.33
2018-11-14T00:12:38.794Z,65.47
2018-11-14T00:15:17.066Z,58.23
2018-11-14T00:17:53.353Z,59.40
2018-11-14T00:20:29.245Z,55.83
2018-11-14T00:23:05.468Z,68.97
2018-11-14T00:25:41.563Z,72.17
2018-11-14T00:28:17.645Z,77.50
2018-11-14T00:30:53.902Z,83.73
2018-11-14T00:33:29.721Z,72.20
2018-11-14T00:36:06.130Z,74.60
2018-11-14T00:38:42.185Z,65.20
2018-11-14T00:41:18.079Z,60.13
2018-11-14T00:43:54.082Z,62.13
2018-11-14T00:46:29.992Z,62.70
2018-11-14T00:49:06.334Z,67.30
2018-11-14T00:51:42.164Z,57.00
2018-11-14T00:54:20.516Z,67.60
2018-11-14T00:56:56.477Z,67.50
2018-11-14T00:59:32.374Z,75.70
2018-11-14T01:02:08.217Z,70.13
2018-11-14T01:04:44.041Z,73.97
2018-11-14T01:07:19.987Z,78.37
2018-11-14T01:09:55.840Z,76.33
2018-11-14T01:12:31.934Z,79.03
2018-11-14T01:15:10.213Z,84.73
2018-11-14T01:17:46.010Z,75.97
2018-11-14T01:20:22.630Z,82.03
2018-11-14T01:22:58.404Z,92.70
2018-11-14T01:25:34.216Z,91.93
2018-11-14T01:28:10.108Z,78.37
2018-11-14T01:30:45.789Z,72.60
2018-11-14T01:33:21.736Z,84.20
2018-11-14T01:35:57.889Z,68.37
2018-11-14T01:38:33.590Z,69.10
2018-11-14T01:41:09.476Z,106.73
2018-11-14T01:43:45.560Z,82.10
2018-11-14T01:46:21.369Z,77.07
2018-11-14T01:48:57.114Z,80.07
2018-11-14T01:51:32.998Z,68.97
2018-11-14T01:54:08.934Z,69.63
2018-11-14T01:56:44.713Z,72.43
2018-11-14T01:59:20.567Z,76.67
2018-11-14T02:01:56.421Z,77.13
2018-11-14T02:04:32.297Z,77.20
2018-11-14T02:07:08.018Z,82.47
2018-11-14T02:09:43.811Z,77.87
2018-11-14T02:12:19.796Z,76.20
2018-11-14T02:14:55.709Z,74.03
2018-11-14T02:17:31.661Z,76.37
2018-11-14T02:20:08.637Z,81.07
2018-11-14T02:22:45.019Z,79.77
2018-11-14T02:25:20.862Z,101.57
2018-11-14T02:27:56.614Z,92.60
2018-11-14T02:30:32.678Z,96.93
2018-11-14T02:33:08.484Z,93.67
2018-11-14T02:35:44.334Z,87.07
2018-11-14T02:38:20.124Z,80.33
2018-11-14T02:40:55.992Z,83.83
2018-11-14T02:43:31.802Z,83.70
2018-11-14T02:46:07.677Z,83.40
2018-11-14T02:48:43.559Z,79.90
2018-11-14T02:51:28.844Z,85.67
2018-11-14T02:54:04.840Z,110.83
2018-11-14T02:56:40.781Z,214.43
2018-11-14T02:59:16.649Z,144.47
2018-11-14T03:01:52.554Z,112.47
2018-11-14T03:04:28.450Z,87.10
2018-11-14T03:07:04.169Z,101.37
2018-11-14T03:09:40.159Z,117.53
2018-11-14T03:12:19.002Z,113.93
2018-11-14T03:14:55.033Z,134.07
2018-11-14T03:17:31.008Z,121.87
2018-11-14T03:20:10.349Z,125.60
2018-11-14T03:22:46.134Z,127.93
2018-11-14T03:25:22.032Z,107.30
2018-11-14T03:27:57.841Z,105.87
2018-11-14T03:30:33.905Z,105.93
2018-11-14T03:33:09.791Z,106.93
2018-11-14T03:35:50.638Z,119.20
2018-11-14T03:38:26.485Z,104.53
2018-11-14T03:41:02.240Z,95.87
2018-11-14T03:43:38.075Z,112.57
2018-11-14T03:46:14.633Z,110.03
2018-11-14T03:48:50.418Z,101.43
2018-11-14T03:51:26.157Z,125.33
2018-11-14T03:54:02.073Z,106.73
2018-11-14T03:56:37.900Z,168.90
2018-11-14T03:59:13.828Z,180.77
2018-11-14T04:01:49.657Z,176.67
2018-11-14T04:04:25.618Z,146.90
2018-11-14T04:07:01.546Z,174.30
2018-11-14T04:09:37.397Z,135.40
2018-11-14T04:12:13.191Z,125.37
2018-11-14T04:14:49.067Z,118.77
2018-11-14T04:17:24.786Z,98.03
2018-11-14T04:20:00.682Z,99.63
2018-11-14T04:22:36.642Z,128.23
2018-11-14T04:25:14.795Z,128.17
2018-11-14T04:27:50.719Z,135.17
2018-11-14T04:30:26.650Z,127.67
2018-11-14T04:33:02.525Z,131.30
2018-11-14T04:35:38.382Z,135.07
2018-11-14T04:38:14.329Z,116.47
2018-11-14T04:40:50.230Z,120.93
2018-11-14T04:43:26.037Z,132.07
2018-11-14T04:46:01.971Z,127.53
2018-11-14T04:48:37.788Z,109.80
2018-11-14T04:51:13.734Z,115.33
2018-11-14T04:53:49.571Z,159.60
2018-11-14T04:56:25.571Z,181.50
2018-11-14T04:59:01.294Z,141.33
2018-11-14T05:01:37.215Z,146.27
2018-11-14T05:04:12.994Z,143.00
2018-11-14T05:06:49.022Z,119.87
2018-11-14T05:09:25.128Z,127.90
2018-11-14T05:12:01.048Z,135.77
2018-11-14T05:14:36.882Z,134.30
2018-11-14T05:17:12.886Z,121.23
2018-11-14T05:19:51.510Z,153.93
2018-11-14T05:22:32.227Z,168.63
2018-11-14T05:25:08.530Z,227.77
2018-11-14T05:27:44.553Z,306.63
2018-11-14T05:30:21.666Z,309.40
2018-11-14T05:32:57.596Z,272.27
2018-11-14T05:35:33.590Z,237.37
2018-11-14T05:38:09.324Z,263.63
2018-11-14T05:40:45.294Z,277.03
2018-11-14T05:43:21.047Z,264.97
2018-11-14T05:45:57.080Z,245.87
2018-11-14T05:48:32.945Z,165.77
2018-11-14T05:51:09.028Z,153.83
2018-11-14T05:53:44.786Z,127.63
2018-11-14T05:56:20.534Z,146.57
2018-11-14T05:58:56.526Z,139.37
2018-11-14T06:01:32.384Z,136.10
2018-11-14T06:04:09.104Z,129.10
2018-11-14T06:06:44.825Z,146.00
2018-11-14T06:09:20.713Z,134.43
2018-11-14T06:11:56.468Z,134.63
2018-11-14T06:14:32.360Z,136.23
2018-11-14T06:17:08.151Z,139.53
2018-11-14T06:19:44.140Z,124.03
2018-11-14T06:22:20.079Z,138.30
2018-11-14T06:24:56.032Z,146.80
2018-11-14T06:27:31.811Z,124.33
2018-11-14T06:30:08.322Z,129.37
2018-11-14T06:32:44.043Z,187.07
2018-11-14T06:35:20.266Z,146.70
2018-11-14T06:37:56.903Z,155.20
2018-11-14T06:40:33.110Z,132.10
2018-11-14T06:43:08.964Z,127.77
2018-11-14T06:45:44.858Z,137.43
2018-11-14T06:48:20.682Z,145.33
2018-11-14T06:50:56.545Z,144.90
2018-11-14T06:53:32.154Z,152.77
2018-11-14T06:56:08.055Z,141.63
2018-11-14T06:58:43.847Z,143.73
2018-11-14T07:01:19.942Z,138.13
2018-11-14T07:03:55.965Z,147.50
2018-11-14T07:06:32.021Z,160.50
2018-11-14T07:09:10.188Z,181.93
2018-11-14T07:11:46.142Z,150.70
2018-11-14T07:14:22.106Z,144.37
2018-11-14T07:16:57.834Z,125.07
2018-11-14T07:19:33.789Z,115.30
2018-11-14T07:22:09.675Z,88.97
2018-11-14T07:24:45.603Z,85.13
2018-11-14T07:27:21.728Z,90.97
2018-11-14T07:29:57.453Z,83.27
2018-11-14T07:32:33.441Z,96.13
2018-11-14T07:35:09.930Z,91.10
2018-11-14T07:37:49.395Z,96.23
2018-11-14T07:40:25.403Z,103.43
2018-11-14T07:43:01.362Z,108.60
2018-11-14T07:45:37.297Z,116.70
2018-11-14T07:48:13.150Z,136.47
2018-11-14T07:50:49.040Z,130.67
2018-11-14T07:53:24.988Z,94.83
2018-11-14T07:56:00.854Z,95.60
2018-11-14T07:58:36.765Z,118.03
2018-11-14T08:01:12.499Z,115.30
2018-11-14T08:03:48.510Z,115.83
2018-11-14T08:06:24.276Z,120.17
2018-11-14T08:09:00.261Z,124.13
2018-11-14T08:11:36.181Z,127.03
2018-11-14T08:14:12.306Z,126.53
2018-11-14T08:16:48.029Z,127.40
2018-11-14T08:19:23.885Z,107.70
2018-11-14T08:21:59.765Z,83.43
2018-11-14T08:24:35.577Z,77.30
2018-11-14T08:27:11.413Z,66.57
2018-11-14T08:29:47.441Z,58.47
2018-11-14T08:32:23.234Z,61.03
2018-11-14T08:34:58.958Z,64.40
2018-11-14T08:37:34.983Z,70.57
2018-11-14T08:40:11.682Z,63.00
2018-11-14T08:42:47.513Z,63.63
2018-11-14T08:45:23.481Z,75.33
2018-11-14T08:47:59.602Z,76.20
2018-11-14T08:50:35.361Z,74.63
2018-11-14T08:53:11.720Z,67.87
2018-11-14T08:55:47.552Z,69.67
2018-11-14T08:58:23.319Z,69.53
2018-11-14T09:00:59.533Z,65.30
2018-11-14T09:03:35.309Z,65.63
2018-11-14T09:06:11.223Z,65.20
2018-11-14T09:08:47.432Z,78.73
2018-11-14T09:11:23.558Z,81.07
2018-11-14T09:13:59.560Z,95.03
2018-11-14T09:16:35.460Z,76.30
2018-11-14T09:19:11.504Z,69.33
2018-11-14T09:21:47.328Z,69.63
2018-11-14T09:24:23.314Z,75.50
2018-11-14T09:26:59.341Z,80.23
2018-11-14T09:29:35.244Z,94.73
2018-11-14T09:32:11.305Z,73.97
2018-11-14T09:34:47.226Z,86.57
2018-11-14T09:37:23.301Z,80.23
2018-11-14T09:39:59.090Z,80.00
2018-11-14T09:42:35.066Z,63.60
2018-11-14T09:45:16.087Z,59.03
2018-11-14T09:47:51.848Z,60.63
2018-11-14T09:50:29.038Z,60.10
2018-11-14T09:53:06.186Z,62.20
2018-11-14T09:55:42.215Z,55.43
2018-11-14T09:58:18.323Z,43.00
2018-11-14T10:00:54.350Z,34.77
2018-11-14T10:03:30.354Z,40.50
2018-11-14T10:06:06.849Z,38.23
2018-11-14T10:08:43.053Z,41.20
2018-11-14T10:11:18.939Z,42.17
2018-11-14T10:13:54.947Z,43.27
2018-11-14T10:16:30.739Z,45.40
2018-11-14T10:19:08.866Z,41.33
2018-11-14T10:21:45.553Z,41.23
2018-11-14T10:24:22.159Z,40.00
2018-11-14T10:26:57.820Z,34.33
2018-11-14T10:29:33.721Z,41.17
2018-11-14T10:32:09.588Z,45.47
2018-11-14T10:34:45.549Z,34.57
2018-11-14T10:37:21.383Z,36.70
2018-11-14T10:39:57.332Z,33.87
2018-11-14T10:42:33.208Z,36.63
2018-11-14T10:45:10.498Z,42.93
2018-11-14T10:47:46.416Z,36.57
2018-11-14T10:50:23.908Z,36.47
2018-11-14T10:52:59.841Z,35.07
2018-11-14T10:55:35.697Z,38.33
2018-11-14T10:58:11.518Z,37.33
2018-11-14T11:00:48.949Z,31.73
2018-11-14T11:03:29.898Z,37.63
2018-11-14T11:08:13.724Z,38.83
2018-11-14T11:10:54.829Z,32.63
2018-11-14T11:13:35.985Z,33.00
2018-11-14T11:16:16.997Z,28.83
2018-11-14T11:18:52.833Z,26.77
2018-11-14T11:21:28.765Z,27.47
2018-11-14T11:24:05.037Z,30.97
2018-11-14T11:26:40.853Z,26.73
2018-11-14T11:29:16.653Z,28.67
2018-11-14T11:31:52.505Z,22.20
2018-11-14T11:34:31.312Z,23.30
2018-11-14T11:37:07.198Z,23.37
2018-11-14T11:39:43.159Z,45.60
2018-11-14T11:42:19.108Z,35.77
2018-11-14T11:44:55.039Z,47.80
2018-11-14T11:47:30.792Z,36.53
2018-11-14T11:50:07.514Z,64.17
2018-11-14T11:52:43.446Z,86.10
2018-11-14T11:55:19.521Z,64.50
2018-11-14T11:57:55.565Z,48.90
2018-11-14T12:00:31.687Z,58.83
2018-11-14T12:03:07.526Z,44.57
2018-11-14T12:05:43.495Z,50.13
2018-11-14T12:08:19.617Z,31.40
2018-11-14T12:10:55.657Z,40.20
2018-11-14T12:13:31.648Z,42.63
2018-11-14T12:16:07.721Z,39.33
2018-11-14T12:18:43.661Z,38.47
2018-11-14T12:21:19.467Z,42.23
2018-11-14T12:23:55.251Z,43.60
2018-11-14T12:26:31.193Z,42.33
2018-11-14T12:29:07.013Z,45.10
2018-11-14T12:31:42.878Z,45.07
2018-11-14T12:34:19.046Z,53.00
2018-11-14T12:36:54.982Z,54.27
2018-11-14T12:39:30.761Z,43.83
2018-11-14T12:42:07.125Z,49.00
2018-11-14T12:44:42.857Z,49.83
2018-11-14T12:47:18.855Z,44.10
2018-11-14T12:49:54.593Z,50.13
2018-11-14T12:52:30.645Z,47.33
2018-11-14T12:55:08.006Z,48.20
2018-11-14T12:57:44.150Z,51.83
2018-11-14T13:00:20.987Z,47.23
2018-11-14T13:02:56.902Z,40.03
2018-11-14T13:05:32.758Z,46.30
2018-11-14T13:08:08.887Z,41.40
2018-11-14T13:10:40.810Z,42.83
2018-11-14T13:13:11.910Z,39.37
2018-11-14T13:15:43.747Z,40.83
2018-11-14T13:19:38.889Z,45.87
2018-11-14T13:22:10.101Z,49.97
2018-11-14T13:24:41.170Z,46.87
2018-11-14T13:27:12.193Z,44.20
2018-11-14T13:29:43.642Z,43.03
2018-11-14T13:32:14.631Z,52.37
2018-11-14T13:34:46.715Z,53.63
2018-11-14T13:37:17.697Z,47.60
2018-11-14T13:39:49.845Z,47.30
2018-11-14T13:42:20.805Z,53.33
2018-11-14T13:44:51.865Z,50.57
2018-11-14T13:47:22.835Z,66.03
2018-11-14T13:49:54.266Z,57.83
2018-11-14T13:52:27.945Z,57.63
2018-11-14T13:54:59.238Z,52.97
2018-11-14T13:57:30.196Z,50.60
2018-11-14T14:00:03.595Z,56.00
2018-11-14T14:02:34.562Z,49.67
2018-11-14T14:05:10.783Z,51.90
2018-11-14T14:07:41.754Z,56.27
2018-11-14T14:10:15.086Z,49.33
2018-11-14T14:12:47.317Z,54.93
2018-11-14T14:15:19.998Z,82.27
2018-11-14T14:17:51.960Z,127.00
2018-11-14T14:20:23.466Z,108.33
2018-11-14T14:22:54.452Z,76.50
2018-11-14T14:25:25.490Z,87.43
2018-11-14T14:27:56.457Z,96.13
2018-11-14T14:30:27.749Z,96.90
2018-11-14T14:32:58.714Z,83.27
2018-11-14T14:35:29.776Z,83.67
2018-11-14T14:38:00.773Z,183.23
2018-11-14T14:40:32.610Z,86.33
2018-11-14T14:43:03.615Z,70.33
2018-11-14T14:45:34.691Z,55.43
2018-11-14T14:48:05.976Z,63.07
2018-11-14T14:50:42.549Z,63.13
2018-11-14T14:53:19.086Z,54.60
2018-11-14T14:55:56.953Z,74.33
2018-11-14T14:58:33.442Z,99.03
2018-11-14T15:01:03.954Z,118.70
2018-11-14T15:03:34.692Z,114.60
2018-11-14T15:06:06.261Z,114.50
2018-11-14T15:08:37.245Z,110.80
2018-11-14T15:11:08.921Z,103.03
2018-11-14T15:13:39.899Z,91.27
2018-11-14T15:16:11.948Z,107.40
2018-11-14T15:18:43.093Z,120.97
2018-11-14T15:21:14.166Z,179.93
2018-11-14T15:23:45.173Z,219.60
2018-11-14T15:26:16.221Z,109.77
2018-11-14T15:28:47.212Z,73.73
2018-11-14T15:31:18.634Z,83.10
2018-11-14T15:33:49.626Z,79.67
2018-11-14T15:36:20.661Z,71.87
2018-11-14T15:38:56.148Z,76.03
2018-11-14T15:41:27.173Z,72.33
2018-11-14T15:43:58.640Z,87.57
2018-11-14T15:46:29.734Z,151.60
2018-11-14T15:49:00.757Z,140.50
2018-11-14T15:51:32.451Z,129.67
2018-11-14T15:54:03.766Z,143.10
2018-11-14T15:56:34.911Z,83.73
2018-11-14T15:59:06.142Z,130.63
2018-11-14T16:01:40.048Z,151.10
2018-11-14T16:04:11.278Z,233.87
2018-11-14T16:06:42.306Z,107.47
2018-11-14T16:09:13.792Z,105.83
2018-11-14T16:11:44.814Z,114.57
2018-11-14T16:14:15.996Z,118.80
2018-11-14T16:16:47.363Z,91.13
2018-11-14T16:19:18.342Z,99.20
2018-11-14T16:21:49.378Z,80.70
2018-11-14T16:24:21.305Z,81.03
2018-11-14T16:26:52.580Z,88.13
2018-11-14T16:29:24.137Z,84.07
2018-11-14T16:31:56.204Z,75.50
2018-11-14T16:34:27.192Z,82.13
2018-11-14T16:36:58.233Z,90.57
2018-11-14T16:39:30.041Z,98.63
2018-11-14T16:42:01.048Z,97.57
2018-11-14T16:44:32.252Z,122.13
2018-11-14T16:47:03.679Z,131.87
2018-11-14T16:49:34.661Z,368.83
2018-11-14T16:52:06.133Z,172.57
2018-11-14T16:54:37.098Z,142.13
2018-11-14T16:57:08.255Z,123.57
2018-11-14T16:59:39.229Z,106.87
2018-11-14T17:02:10.182Z,89.40
2018-11-14T17:04:41.023Z,95.83
2018-11-14T17:07:11.984Z,96.10
2018-11-14T17:09:42.850Z,92.90
2018-11-14T17:12:13.949Z,105.57
2018-11-14T17:14:44.742Z,87.03
2018-11-14T17:17:16.152Z,219.40
2018-11-14T17:19:47.035Z,115.23
2018-11-14T17:22:17.960Z,126.17
2018-11-14T17:24:48.838Z,144.40
2018-11-14T17:27:19.713Z,127.47
2018-11-14T17:29:56.073Z,230.33
2018-11-14T17:32:33.404Z,127.97
2018-11-14T17:35:04.297Z,114.43
2018-11-14T17:37:41.601Z,113.00
2018-11-14T17:40:14.919Z,91.97
2018-11-14T17:42:47.832Z,89.00
2018-11-14T17:45:29.055Z,69.50
2018-11-14T17:48:00.356Z,73.63
2018-11-14T17:53:29.161Z,115.83
2018-11-14T17:56:00.141Z,70.53
2018-11-14T17:58:32.774Z,59.57
2018-11-14T18:01:03.666Z,57.63
2018-11-14T18:03:34.793Z,66.73
2018-11-14T18:06:06.114Z,67.53
2018-11-14T18:08:36.984Z,75.07
2018-11-14T18:11:07.835Z,68.37
2018-11-14T18:13:39.378Z,89.87
2018-11-14T18:16:10.196Z,66.37
2018-11-14T18:18:41.321Z,66.10
2018-11-14T18:21:12.202Z,70.53
2018-11-14T18:23:43.004Z,76.27
2018-11-14T18:26:13.914Z,108.20
2018-11-14T18:28:44.845Z,154.20
2018-11-14T18:31:15.694Z,229.50
2018-11-14T18:33:46.682Z,139.90
2018-11-14T18:36:17.592Z,160.70
2018-11-14T18:38:48.540Z,106.07
2018-11-14T18:41:19.351Z,196.17
2018-11-14T18:43:50.317Z,68.17
2018-11-14T18:46:21.115Z,113.90
2018-11-14T18:48:52.026Z,76.77
2018-11-14T18:51:25.682Z,96.07
2018-11-14T18:53:56.597Z,308.10
2018-11-14T18:56:27.421Z,103.43
2018-11-14T18:58:58.457Z,101.47
2018-11-14T19:01:29.313Z,69.87
2018-11-14T19:04:01.300Z,70.87
2018-11-14T19:06:32.389Z,141.60
2018-11-14T19:09:03.722Z,70.37
2018-11-14T19:11:35.455Z,52.50
2018-11-14T19:14:06.748Z,68.30
2018-11-14T19:16:37.873Z,46.27
2018-11-14T19:19:09.285Z,60.77
2018-11-14T19:21:40.337Z,41.73
2018-11-14T19:24:11.335Z,44.00
2018-11-14T19:26:42.185Z,34.27
2018-11-14T19:29:13.483Z,63.63
2018-11-14T19:31:44.423Z,46.97
2018-11-14T19:34:15.454Z,51.47
2018-11-14T19:36:47.514Z,43.80
2018-11-14T19:39:18.801Z,44.13
2018-11-14T19:41:49.663Z,87.40
2018-11-14T19:44:20.515Z,39.57
2018-11-14T19:46:51.432Z,43.60
2018-11-14T19:49:22.483Z,33.40
2018-11-14T19:51:53.512Z,38.27
2018-11-14T19:54:24.290Z,38.77
2018-11-14T19:56:55.127Z,40.53
2018-11-14T19:59:26.573Z,34.83
2018-11-14T20:01:58.665Z,37.73
2018-11-14T20:04:29.766Z,33.20
2018-11-14T20:07:00.841Z,30.47
2018-11-14T20:09:31.665Z,30.07
2018-11-14T20:12:02.652Z,36.20
2018-11-14T20:14:33.583Z,74.77
2018-11-14T20:17:04.514Z,39.23
2018-11-14T20:19:38.810Z,55.67
2018-11-14T20:22:09.747Z,59.20
2018-11-14T20:24:41.321Z,56.47
2018-11-14T20:27:14.813Z,54.90
2018-11-14T20:29:49.269Z,80.70
2018-11-14T20:32:20.399Z,67.90
2018-11-14T20:34:51.796Z,66.17
2018-11-14T20:37:23.632Z,51.80
2018-11-14T20:39:57.045Z,84.30
2018-11-14T20:42:30.001Z,81.03
2018-11-14T20:45:01.081Z,39.80
2018-11-14T20:47:31.902Z,37.40
2018-11-14T20:50:03.968Z,45.83
2018-11-14T20:52:34.802Z,44.33
2018-11-14T20:55:06.902Z,39.30
2018-11-14T20:57:38.517Z,43.63
2018-11-14T21:00:22.801Z,43.03
2018-11-14T21:02:54.500Z,102.67
2018-11-14T21:05:26.583Z,76.83
2018-11-14T21:07:58.733Z,61.57
2018-11-14T21:10:32.347Z,62.17
2018-11-14T21:13:05.896Z,71.77
2018-11-14T21:15:42.667Z,67.43
2018-11-14T21:18:19.075Z,64.07
2018-11-14T21:20:54.942Z,70.87
2018-11-14T21:23:31.176Z,69.77
2018-11-14T21:26:07.450Z,86.43
2018-11-14T21:28:43.290Z,91.57
2018-11-14T21:31:19.198Z,103.53
2018-11-14T21:33:55.305Z,79.23
2018-11-14T21:36:33.064Z,79.03
2018-11-14T21:39:12.800Z,82.93
2018-11-14T21:41:48.966Z,83.77
2018-11-14T21:44:28.959Z,80.60
2018-11-14T21:47:06.324Z,86.77
2018-11-14T21:49:44.195Z,85.23
2018-11-14T21:52:20.391Z,91.13
2018-11-14T21:54:56.292Z,85.23
2018-11-14T21:57:32.274Z,68.87
2018-11-14T22:00:11.102Z,62.03
2018-11-14T22:02:48.452Z,63.17
2018-11-14T22:05:24.097Z,64.23
2018-11-14T22:08:00.041Z,61.47
2018-11-14T22:10:35.968Z,67.10
2018-11-14T22:13:11.913Z,83.60
2018-11-14T22:15:50.323Z,87.53
2018-11-14T22:18:26.307Z,114.17
2018-11-14T22:21:02.169Z,105.50
2018-11-14T22:23:38.338Z,77.40
2018-11-14T22:26:14.133Z,76.60
2018-11-14T22:28:50.217Z,70.87
2018-11-14T22:31:26.046Z,71.77
2018-11-14T22:34:01.935Z,70.87
2018-11-14T22:36:37.825Z,68.33
2018-11-14T22:39:13.624Z,67.77
2018-11-14T22:41:49.292Z,63.13
2018-11-14T22:44:25.206Z,60.67
2018-11-14T22:47:01.045Z,55.50
2018-11-14T22:49:36.785Z,72.27
2018-11-14T22:52:12.493Z,66.60
2018-11-14T22:54:48.545Z,62.47
2018-11-14T22:57:24.412Z,64.53
2018-11-14T23:00:00.361Z,73.77
2018-11-14T23:02:36.198Z,78.93
2018-11-14T23:05:12.437Z,67.90
2018-11-14T23:07:49.697Z,72.90
2018-11-14T23:10:26.209Z,78.47
2018-11-14T23:13:01.971Z,67.10
2018-11-14T23:15:38.168Z,75.97
2018-11-14T23:18:14.065Z,65.77
2018-11-14T23:20:49.833Z,67.67
2018-11-14T23:23:25.601Z,62.43
2018-11-14T23:26:01.435Z,67.37
2018-11-14T23:28:37.167Z,61.30
2018-11-14T23:31:13.156Z,56.53
2018-11-14T23:33:48.990Z,57.50
2018-11-14T23:36:24.666Z,60.03
2018-11-14T23:39:00.523Z,59.17
2018-11-14T23:41:36.465Z,52.50
2018-11-14T23:44:12.239Z,50.47
2018-11-14T23:46:48.229Z,45.70
2018-11-14T23:49:24.018Z,46.20
2018-11-14T23:51:59.832Z,55.53
2018-11-14T23:54:35.568Z,50.87
2018-11-14T23:57:11.544Z,51.00
2018-11-14T23:59:47.381Z,53.10
